createdAt,value
2022-11-14T00:00:04.994Z,5.60
2022-11-14T00:01:05.000Z,5.40
2022-11-14T00:02:04.962Z,5.90
2022-11-14T00:03:05.021Z,5.60
2022-11-14T00:04:04.947Z,5.60
2022-11-14T00:05:04.941Z,5.50
2022-11-14T00:06:04.952Z,5.10
2022-11-14T00:07:04.989Z,5.70
2022-11-14T00:08:04.896Z,5.60
2022-11-14T00:09:04.893Z,5.20
2022-11-14T00:10:04.876Z,5.30
2022-11-14T00:11:04.877Z,5.20
2022-11-14T00:12:04.875Z,5.10
2022-11-14T00:13:04.833Z,5.30
2022-11-14T00:14:04.833Z,5.10
2022-11-14T00:15:04.823Z,5.10
2022-11-14T00:16:04.818Z,5.40
2022-11-14T00:17:04.817Z,5.60
2022-11-14T00:18:04.812Z,5.60
2022-11-14T00:19:04.774Z,5.10
2022-11-14T00:20:04.764Z,5.50
2022-11-14T00:21:04.756Z,5.40
2022-11-14T00:22:04.742Z,5.40
2022-11-14T00:23:04.733Z,5.70
2022-11-14T00:24:04.759Z,5.60
2022-11-14T00:25:04.704Z,5.50
2022-11-14T00:26:04.706Z,5.50
2022-11-14T00:27:04.684Z,5.30
2022-11-14T00:28:04.677Z,5.80
2022-11-14T00:29:04.716Z,5.60
2022-11-14T00:30:04.713Z,5.90
2022-11-14T00:31:04.659Z,5.90
2022-11-14T00:32:04.626Z,5.70
2022-11-14T00:33:04.623Z,6.00
2022-11-14T00:34:04.606Z,5.70
2022-11-14T00:35:04.598Z,5.30
2022-11-14T00:36:04.643Z,5.60
2022-11-14T00:37:04.575Z,5.70
2022-11-14T00:38:04.563Z,5.70
2022-11-14T00:39:04.543Z,6.00
2022-11-14T00:40:04.564Z,5.40
2022-11-14T00:41:04.560Z,5.70
2022-11-14T00:42:04.514Z,5.50
2022-11-14T00:43:04.526Z,5.30
2022-11-14T00:44:04.501Z,5.80
2022-11-14T00:45:04.493Z,5.80
2022-11-14T00:46:04.474Z,5.70
2022-11-14T00:47:04.474Z,5.70
2022-11-14T00:48:04.447Z,5.50
2022-11-14T00:49:04.436Z,5.10
2022-11-14T00:50:04.414Z,6.10
2022-11-14T00:51:04.415Z,5.60
2022-11-14T00:52:04.402Z,5.20
2022-11-14T00:53:04.437Z,5.50
2022-11-14T00:54:04.388Z,5.80
2022-11-14T00:55:04.366Z,5.40
2022-11-14T00:56:04.355Z,5.30
2022-11-14T00:57:04.337Z,5.00
2022-11-14T00:58:04.404Z,5.80
2022-11-14T00:59:04.344Z,5.60
2022-11-14T01:00:04.315Z,5.20
2022-11-14T01:01:04.533Z,5.40
2022-11-14T01:02:04.294Z,5.30
2022-11-14T01:03:04.267Z,5.20
2022-11-14T01:04:04.272Z,5.90
2022-11-14T01:05:04.277Z,5.30
2022-11-14T01:06:04.261Z,5.60
2022-11-14T01:07:04.229Z,6.00
2022-11-14T01:08:04.217Z,5.50
2022-11-14T01:09:04.272Z,5.10
2022-11-14T01:10:04.225Z,5.60
2022-11-14T01:11:04.206Z,4.90
2022-11-14T01:12:04.169Z,5.20
2022-11-14T01:13:04.177Z,5.80
2022-11-14T01:14:04.163Z,5.90
2022-11-14T01:15:04.140Z,5.20
2022-11-14T01:16:04.157Z,5.50
2022-11-14T01:17:04.137Z,5.30
2022-11-14T01:18:04.105Z,5.40
2022-11-14T01:19:04.087Z,5.80
2022-11-14T01:20:04.077Z,5.70
2022-11-14T01:21:04.087Z,5.10
2022-11-14T01:22:06.468Z,5.70
2022-11-14T01:23:04.048Z,5.70
2022-11-14T01:24:04.037Z,5.00
2022-11-14T01:25:04.035Z,5.60
2022-11-14T01:26:04.010Z,5.60
2022-11-14T01:27:03.998Z,5.70
2022-11-14T01:28:04.025Z,5.40
2022-11-14T01:29:03.984Z,5.40
2022-11-14T01:30:03.959Z,5.20
2022-11-14T01:31:03.947Z,5.20
2022-11-14T01:32:03.938Z,5.20
2022-11-14T01:33:03.935Z,5.10
2022-11-14T01:34:03.950Z,5.00
2022-11-14T01:35:03.907Z,5.60
2022-11-14T01:36:03.890Z,5.40
2022-11-14T01:37:03.879Z,5.30
2022-11-14T01:38:03.885Z,5.40
2022-11-14T01:39:03.859Z,5.30
2022-11-14T01:40:03.879Z,5.60
2022-11-14T01:41:03.851Z,5.50
2022-11-14T01:42:03.818Z,5.00
2022-11-14T01:43:03.810Z,5.10
2022-11-14T01:44:03.810Z,5.80
2022-11-14T01:45:03.788Z,5.80
2022-11-14T01:46:03.808Z,4.90
2022-11-14T01:47:03.779Z,5.50
2022-11-14T01:48:03.759Z,5.40
2022-11-14T01:49:03.739Z,5.50
2022-11-14T01:50:03.745Z,5.10
2022-11-14T01:51:03.754Z,6.40
2022-11-14T01:52:03.720Z,5.40
2022-11-14T01:53:03.699Z,5.60
2022-11-14T01:54:03.701Z,5.40
2022-11-14T01:55:03.680Z,5.10
2022-11-14T01:56:03.671Z,5.70
2022-11-14T01:57:03.690Z,5.40
2022-11-14T01:58:03.639Z,5.70
2022-11-14T01:59:03.632Z,6.00
2022-11-14T02:00:03.621Z,5.50
2022-11-14T02:01:03.654Z,5.30
2022-11-14T02:02:03.676Z,5.10
2022-11-14T02:03:03.590Z,5.80
2022-11-14T02:04:05.430Z,5.50
2022-11-14T02:05:03.570Z,5.60
2022-11-14T02:06:03.544Z,5.10
2022-11-14T02:07:03.636Z,5.80
2022-11-14T02:08:03.573Z,4.90
2022-11-14T02:09:03.536Z,4.70
2022-11-14T02:10:03.502Z,5.10
2022-11-14T02:11:03.495Z,5.10
2022-11-14T02:12:03.482Z,5.40
2022-11-14T02:13:03.527Z,4.90
2022-11-14T02:14:03.653Z,5.60
2022-11-14T02:15:03.473Z,5.00
2022-11-14T02:16:03.517Z,5.60
2022-11-14T02:17:28.027Z,5.40
2022-11-14T02:18:04.413Z,5.40
2022-11-14T02:19:03.402Z,4.50
2022-11-14T02:20:05.323Z,5.20
2022-11-14T02:21:03.379Z,5.00
2022-11-14T02:22:03.418Z,5.50
2022-11-14T02:23:03.372Z,5.50
2022-11-14T02:24:03.341Z,5.00
2022-11-14T02:25:03.340Z,5.10
2022-11-14T02:26:03.346Z,5.60
2022-11-14T02:27:03.319Z,5.30
2022-11-14T02:28:03.301Z,5.30
2022-11-14T02:29:03.312Z,5.00
2022-11-14T02:30:03.301Z,5.30
2022-11-14T02:31:03.340Z,5.80
2022-11-14T02:32:08.087Z,5.00
2022-11-14T02:33:11.923Z,5.10
2022-11-14T02:34:04.242Z,5.90
2022-11-14T02:35:03.254Z,5.20
2022-11-14T02:36:03.204Z,4.90
2022-11-14T02:37:03.252Z,5.30
2022-11-14T02:38:03.181Z,4.80
2022-11-14T02:39:03.183Z,5.70
2022-11-14T02:40:03.165Z,5.20
2022-11-14T02:41:03.160Z,5.60
2022-11-14T02:42:03.140Z,5.60
2022-11-14T02:43:03.190Z,5.10
2022-11-14T02:44:03.122Z,5.30
2022-11-14T02:45:03.115Z,5.90
2022-11-14T02:46:05.559Z,5.60
2022-11-14T02:47:03.096Z,5.30
2022-11-14T02:48:03.063Z,5.50
2022-11-14T02:49:03.074Z,5.60
2022-11-14T02:50:03.076Z,5.50
2022-11-14T02:51:03.044Z,5.40
2022-11-14T02:52:03.038Z,5.50
2022-11-14T02:53:03.081Z,5.50
2022-11-14T02:54:03.047Z,5.40
2022-11-14T02:55:03.024Z,5.40
2022-11-14T02:56:02.977Z,5.90
2022-11-14T02:57:02.973Z,5.60
2022-11-14T02:58:02.965Z,5.70
2022-11-14T02:59:02.954Z,5.70
2022-11-14T03:00:02.957Z,5.40
2022-11-14T03:01:19.802Z,5.90
2022-11-14T03:02:03.959Z,6.00
2022-11-14T03:03:02.908Z,5.30
2022-11-14T03:04:02.884Z,5.70
2022-11-14T03:05:02.873Z,5.40
2022-11-14T03:06:02.894Z,5.70
2022-11-14T03:07:02.884Z,5.50
2022-11-14T03:08:02.896Z,5.40
2022-11-14T03:09:02.835Z,5.70
2022-11-14T03:10:02.836Z,6.10
2022-11-14T03:11:02.837Z,5.50
2022-11-14T03:12:02.875Z,5.90
2022-11-14T03:13:02.813Z,5.50
2022-11-14T03:14:02.776Z,5.70
2022-11-14T03:15:02.766Z,5.40
2022-11-14T03:16:02.770Z,4.80
2022-11-14T03:17:02.737Z,5.20
2022-11-14T03:18:02.759Z,5.90
2022-11-14T03:19:02.725Z,5.60
2022-11-14T03:20:02.724Z,5.90
2022-11-14T03:21:02.719Z,5.50
2022-11-14T03:22:02.686Z,6.10
2022-11-14T03:23:02.703Z,6.00
2022-11-14T03:24:02.658Z,5.90
2022-11-14T03:25:02.691Z,5.50
2022-11-14T03:26:02.635Z,5.90
2022-11-14T03:27:02.648Z,6.00
2022-11-14T03:28:02.647Z,5.70
2022-11-14T03:29:02.656Z,5.40
2022-11-14T03:30:02.608Z,6.20
2022-11-14T03:31:02.587Z,5.50
2022-11-14T03:32:02.574Z,6.00
2022-11-14T03:33:02.574Z,5.00
2022-11-14T03:34:02.549Z,5.80
2022-11-14T03:35:02.603Z,6.40
2022-11-14T03:36:02.526Z,5.20
2022-11-14T03:37:02.530Z,6.00
2022-11-14T03:38:02.508Z,5.80
2022-11-14T03:39:02.489Z,5.50
2022-11-14T03:40:02.480Z,5.60
2022-11-14T03:41:02.512Z,5.30
2022-11-14T03:42:02.454Z,5.90
2022-11-14T03:43:02.439Z,5.60
2022-11-14T03:44:02.454Z,5.70
2022-11-14T03:45:02.418Z,5.80
2022-11-14T03:46:02.419Z,5.40
2022-11-14T03:47:02.467Z,6.20
2022-11-14T03:48:02.388Z,6.20
2022-11-14T03:49:02.377Z,6.20
2022-11-14T03:50:02.369Z,6.20
2022-11-14T03:51:02.374Z,6.10
2022-11-14T03:52:02.379Z,5.80
2022-11-14T03:53:02.382Z,6.40
2022-11-14T03:54:02.321Z,6.30
2022-11-14T03:55:02.312Z,5.70
2022-11-14T03:56:02.297Z,6.20
2022-11-14T03:57:02.291Z,5.60
2022-11-14T03:58:02.317Z,6.10
2022-11-14T03:59:02.287Z,5.90
2022-11-14T04:00:02.259Z,6.40
2022-11-14T04:01:02.327Z,5.10
2022-11-14T04:02:02.246Z,5.80
2022-11-14T04:03:02.210Z,5.80
2022-11-14T04:04:02.202Z,5.30
2022-11-14T04:05:02.221Z,5.70
2022-11-14T04:06:02.187Z,5.60
2022-11-14T04:07:02.265Z,5.10
2022-11-14T04:08:02.155Z,4.90
2022-11-14T04:09:02.146Z,5.10
2022-11-14T04:10:02.128Z,6.00
2022-11-14T04:11:02.141Z,5.40
2022-11-14T04:12:02.115Z,5.70
2022-11-14T04:13:02.106Z,4.90
2022-11-14T04:14:02.110Z,5.50
2022-11-14T04:15:02.080Z,5.50
2022-11-14T04:16:02.090Z,5.30
2022-11-14T04:17:02.067Z,5.60
2022-11-14T04:18:02.068Z,5.70
2022-11-14T04:19:02.039Z,5.30
2022-11-14T04:20:02.021Z,5.60
2022-11-14T04:21:02.021Z,5.40
2022-11-14T04:22:02.030Z,4.90
2022-11-14T04:23:01.990Z,5.50
2022-11-14T04:24:03.903Z,5.70
2022-11-14T04:25:02.960Z,5.60
2022-11-14T04:26:01.950Z,5.80
2022-11-14T04:27:01.971Z,5.80
2022-11-14T04:28:01.930Z,5.70
2022-11-14T04:29:01.934Z,5.80
2022-11-14T04:30:01.900Z,5.60
2022-11-14T04:31:01.881Z,5.60
2022-11-14T04:32:01.881Z,5.30
2022-11-14T04:33:01.896Z,4.80
2022-11-14T04:34:01.867Z,5.40
2022-11-14T04:35:01.947Z,5.60
2022-11-14T04:36:01.831Z,5.40
2022-11-14T04:37:01.830Z,5.00
2022-11-14T04:38:01.841Z,5.00
2022-11-14T04:39:01.841Z,5.40
2022-11-14T04:40:01.815Z,5.40
2022-11-14T04:41:01.792Z,5.50
2022-11-14T04:42:01.766Z,5.60
2022-11-14T04:43:01.752Z,5.70
2022-11-14T04:44:01.786Z,5.80
2022-11-14T04:45:01.789Z,5.50
2022-11-14T04:46:01.733Z,5.70
2022-11-14T04:47:01.711Z,5.90
2022-11-14T04:48:01.702Z,5.70
2022-11-14T04:49:01.743Z,6.60
2022-11-14T04:50:01.693Z,5.70
2022-11-14T04:51:01.680Z,6.30
2022-11-14T04:52:01.696Z,6.30
2022-11-14T04:53:01.643Z,5.80
2022-11-14T04:54:01.633Z,5.60
2022-11-14T04:55:01.641Z,5.70
2022-11-14T04:56:01.603Z,5.90
2022-11-14T04:57:01.596Z,5.40
2022-11-14T04:58:01.592Z,6.00
2022-11-14T04:59:01.584Z,5.60
2022-11-14T05:00:01.570Z,5.30
2022-11-14T05:01:01.613Z,5.80
2022-11-14T05:02:01.562Z,5.40
2022-11-14T05:03:01.558Z,6.00
2022-11-14T05:04:01.514Z,6.20
2022-11-14T05:05:01.503Z,5.30
2022-11-14T05:06:01.500Z,5.80
2022-11-14T05:07:01.571Z,5.20
2022-11-14T05:08:01.483Z,5.80
2022-11-14T05:09:01.518Z,6.10
2022-11-14T05:10:01.444Z,5.70
2022-11-14T05:11:01.450Z,6.30
2022-11-14T05:12:01.425Z,5.90
2022-11-14T05:13:01.445Z,6.10
2022-11-14T05:14:01.403Z,5.70
2022-11-14T05:15:01.409Z,5.70
2022-11-14T05:16:01.373Z,5.60
2022-11-14T05:17:01.402Z,5.80
2022-11-14T05:18:01.353Z,5.70
2022-11-14T05:19:01.372Z,5.90
2022-11-14T05:20:01.331Z,5.70
2022-11-14T05:21:01.332Z,6.10
2022-11-14T05:22:01.314Z,5.30
2022-11-14T05:23:01.305Z,5.70
2022-11-14T05:24:01.316Z,5.50
2022-11-14T05:25:01.277Z,6.10
2022-11-14T05:26:01.258Z,5.50
2022-11-14T05:27:01.275Z,5.10
2022-11-14T05:28:01.248Z,6.20
2022-11-14T05:29:01.236Z,5.70
2022-11-14T05:30:01.241Z,5.30
2022-11-14T05:31:01.214Z,5.70
2022-11-14T05:32:01.224Z,5.80
2022-11-14T05:33:01.192Z,6.10
2022-11-14T05:34:01.177Z,5.70
2022-11-14T05:35:01.207Z,6.20
2022-11-14T05:36:01.162Z,6.20
2022-11-14T05:37:01.137Z,6.00
2022-11-14T05:38:01.151Z,7.00
2022-11-14T05:39:01.118Z,6.40
2022-11-14T05:40:01.118Z,6.50
2022-11-14T05:41:01.138Z,6.20
2022-11-14T05:42:01.076Z,6.50
2022-11-14T05:43:01.074Z,6.40
2022-11-14T05:44:01.062Z,6.60
2022-11-14T05:45:01.047Z,6.40
2022-11-14T05:46:01.083Z,6.80
2022-11-14T05:47:01.036Z,6.70
2022-11-14T05:48:01.015Z,6.10
2022-11-14T05:49:01.006Z,6.80
2022-11-14T05:50:00.988Z,6.70
2022-11-14T05:51:00.997Z,6.90
2022-11-14T05:52:00.999Z,7.30
2022-11-14T05:53:00.956Z,6.70
2022-11-14T05:54:00.937Z,7.20
2022-11-14T05:55:00.965Z,7.10
2022-11-14T05:56:00.926Z,7.50
2022-11-14T05:57:00.960Z,6.90
2022-11-14T05:58:00.920Z,7.60
2022-11-14T05:59:00.903Z,6.90
2022-11-14T06:00:00.878Z,6.20
2022-11-14T06:01:00.866Z,7.10
2022-11-14T06:02:00.912Z,7.70
2022-11-14T06:03:00.877Z,7.20
2022-11-14T06:04:00.847Z,7.50
2022-11-14T06:05:00.824Z,7.80
2022-11-14T06:06:00.827Z,7.50
2022-11-14T06:07:00.838Z,7.70
2022-11-14T06:08:00.807Z,8.20
2022-11-14T06:09:00.888Z,8.20
2022-11-14T06:10:00.768Z,8.20
2022-11-14T06:11:00.768Z,8.50
2022-11-14T06:12:00.750Z,8.20
2022-11-14T06:13:00.749Z,7.70
2022-11-14T06:14:00.717Z,8.70
2022-11-14T06:15:00.752Z,8.70
2022-11-14T06:16:00.699Z,8.80
2022-11-14T06:17:00.687Z,8.70
2022-11-14T06:18:00.680Z,8.50
2022-11-14T06:19:00.665Z,9.00
2022-11-14T06:20:00.692Z,8.00
2022-11-14T06:21:00.660Z,8.30
2022-11-14T06:22:00.635Z,8.50
2022-11-14T06:23:00.618Z,7.70
2022-11-14T06:24:00.608Z,7.60
2022-11-14T06:25:00.601Z,7.70
2022-11-14T06:26:00.622Z,7.70
2022-11-14T06:27:00.570Z,8.00
2022-11-14T06:28:00.560Z,8.20
2022-11-14T06:29:00.549Z,7.80
2022-11-14T06:30:00.559Z,8.00
2022-11-14T06:31:00.523Z,7.60
2022-11-14T06:32:00.539Z,8.40
2022-11-14T06:33:00.498Z,8.00
2022-11-14T06:34:00.499Z,7.50
2022-11-14T06:35:00.475Z,7.90
2022-11-14T06:36:00.484Z,7.90
2022-11-14T06:37:00.467Z,8.20
2022-11-14T06:38:00.500Z,7.70
2022-11-14T06:39:00.427Z,8.40
2022-11-14T06:40:00.429Z,7.80
2022-11-14T06:41:00.414Z,8.10
2022-11-14T06:42:00.418Z,7.90
2022-11-14T06:43:00.683Z,8.00
2022-11-14T06:44:00.736Z,7.80
2022-11-14T06:45:00.360Z,7.80
2022-11-14T06:46:00.352Z,7.90
2022-11-14T06:47:00.351Z,7.90
2022-11-14T06:48:00.330Z,8.00
2022-11-14T06:49:00.370Z,7.30
2022-11-14T06:50:00.314Z,8.10
2022-11-14T06:51:00.299Z,8.00
2022-11-14T06:52:00.290Z,7.30
2022-11-14T06:53:00.270Z,8.20
2022-11-14T06:54:00.280Z,7.90
2022-11-14T06:55:00.331Z,7.70
2022-11-14T06:56:00.262Z,7.90
2022-11-14T06:57:00.222Z,7.60
2022-11-14T06:58:00.213Z,7.90
2022-11-14T06:59:00.203Z,8.00
2022-11-14T07:00:00.192Z,7.80
2022-11-14T07:01:00.216Z,8.40
2022-11-14T07:02:00.192Z,7.90
2022-11-14T07:03:00.218Z,7.40
2022-11-14T07:04:00.174Z,8.30
2022-11-14T07:05:00.142Z,7.30
2022-11-14T07:06:00.142Z,8.00
2022-11-14T07:07:00.246Z,7.70
2022-11-14T07:08:01.052Z,7.90
2022-11-14T07:09:00.128Z,7.50
2022-11-14T07:10:00.097Z,7.90
2022-11-14T07:11:00.069Z,7.50
2022-11-14T07:12:00.079Z,7.80
2022-11-14T07:13:00.079Z,8.20
2022-11-14T07:14:00.045Z,7.60
2022-11-14T07:15:00.031Z,7.50
2022-11-14T07:16:00.013Z,7.70
2022-11-14T07:17:00.005Z,8.50
2022-11-14T07:18:00.022Z,7.40
2022-11-14T07:18:59.978Z,7.40
2022-11-14T07:19:59.963Z,8.10
2022-11-14T07:20:59.953Z,8.00
2022-11-14T07:21:59.944Z,7.10
2022-11-14T07:22:59.942Z,7.50
2022-11-14T07:23:59.964Z,8.00
2022-11-14T07:24:59.939Z,7.90
2022-11-14T07:25:59.902Z,7.60
2022-11-14T07:26:59.887Z,7.90
2022-11-14T07:27:59.874Z,7.40
2022-11-14T07:29:02.418Z,7.70
2022-11-14T07:29:59.867Z,7.90
2022-11-14T07:30:59.856Z,7.70
2022-11-14T07:31:59.845Z,8.40
2022-11-14T07:32:59.813Z,7.60
2022-11-14T07:33:59.823Z,7.70
2022-11-14T07:35:02.319Z,8.40
2022-11-14T07:35:59.808Z,9.00
2022-11-14T07:36:59.786Z,8.20
2022-11-14T07:37:59.764Z,8.80
2022-11-14T07:38:59.745Z,9.00
2022-11-14T07:39:59.743Z,8.60
2022-11-14T07:41:00.262Z,7.90
2022-11-14T07:41:59.717Z,7.80
2022-11-14T07:42:59.735Z,8.50
2022-11-14T07:43:59.753Z,8.50
2022-11-14T07:44:59.715Z,8.40
2022-11-14T07:45:59.707Z,7.60
2022-11-14T07:46:59.760Z,8.40
2022-11-14T07:47:59.704Z,8.90
2022-11-14T07:48:59.696Z,8.30
2022-11-14T07:49:59.635Z,8.10
2022-11-14T07:50:59.621Z,8.10
2022-11-14T07:51:59.615Z,8.40
2022-11-14T07:52:59.615Z,8.10
2022-11-14T07:53:59.575Z,8.20
2022-11-14T07:54:59.557Z,9.90
2022-11-14T07:55:59.544Z,8.80
2022-11-14T07:56:59.560Z,8.40
2022-11-14T07:57:59.526Z,9.90
2022-11-14T07:58:59.570Z,10.20
2022-11-14T07:59:59.509Z,10.20
2022-11-14T08:00:59.531Z,9.40
2022-11-14T08:01:59.483Z,11.00
2022-11-14T08:02:59.513Z,10.80
2022-11-14T08:03:59.456Z,10.80
2022-11-14T08:04:59.493Z,10.80
2022-11-14T08:05:59.427Z,10.20
2022-11-14T08:06:59.484Z,11.00
2022-11-14T08:07:59.406Z,11.00
2022-11-14T08:08:59.411Z,11.00
2022-11-14T08:09:59.384Z,10.70
2022-11-14T08:10:59.450Z,11.50
2022-11-14T08:11:59.357Z,10.60
2022-11-14T08:13:11.044Z,11.70
2022-11-14T08:14:00.337Z,11.60
2022-11-14T08:14:59.401Z,11.40
2022-11-14T08:15:59.347Z,11.40
2022-11-14T08:16:59.313Z,11.30
2022-11-14T08:17:59.313Z,11.50
2022-11-14T08:18:59.311Z,10.90
2022-11-14T08:19:59.269Z,11.80
2022-11-14T08:20:59.361Z,12.80
2022-11-14T08:21:59.280Z,11.10
2022-11-14T08:22:59.268Z,11.40
2022-11-14T08:23:59.234Z,11.70
2022-11-14T08:24:59.257Z,11.40
2022-11-14T08:25:59.211Z,11.00
2022-11-14T08:26:59.198Z,11.20
2022-11-14T08:27:59.208Z,11.00
2022-11-14T08:28:59.191Z,11.30
2022-11-14T08:29:59.203Z,11.90
2022-11-14T08:30:59.155Z,11.10
2022-11-14T08:32:00.060Z,11.70
2022-11-14T08:32:59.129Z,11.70
2022-11-14T08:33:59.130Z,11.50
2022-11-14T08:34:59.101Z,11.40
2022-11-14T08:35:59.144Z,11.20
2022-11-14T08:36:59.084Z,11.60
2022-11-14T08:37:59.061Z,11.90
2022-11-14T08:39:02.123Z,11.10
2022-11-14T08:39:59.044Z,11.90
2022-11-14T08:40:59.075Z,11.70
2022-11-14T08:41:59.034Z,11.40
2022-11-14T08:42:59.001Z,11.70
2022-11-14T08:43:58.992Z,11.20
2022-11-14T08:44:59.031Z,11.80
2022-11-14T08:46:01.641Z,11.10
2022-11-14T08:46:58.961Z,12.00
2022-11-14T08:47:58.965Z,11.40
2022-11-14T08:48:58.941Z,11.60
2022-11-14T08:49:58.919Z,12.10
2022-11-14T08:50:58.972Z,12.10
2022-11-14T08:51:58.929Z,11.60
2022-11-14T08:52:58.901Z,11.00
2022-11-14T08:53:58.883Z,11.80
2022-11-14T08:54:58.882Z,11.50
2022-11-14T08:55:58.860Z,11.40
2022-11-14T08:56:58.860Z,12.30
2022-11-14T08:57:58.841Z,11.40
2022-11-14T08:58:58.841Z,12.30
2022-11-14T08:59:58.812Z,11.50
2022-11-14T09:00:58.800Z,11.90
2022-11-14T09:01:58.843Z,11.40
2022-11-14T09:02:58.897Z,11.60
2022-11-14T09:04:00.170Z,12.00
2022-11-14T09:04:58.841Z,11.70
2022-11-14T09:05:58.762Z,11.10
2022-11-14T09:06:58.794Z,11.10
2022-11-14T09:07:58.744Z,11.90
2022-11-14T09:08:58.703Z,11.20
2022-11-14T09:09:58.705Z,11.30
2022-11-14T09:11:04.224Z,11.50
2022-11-14T09:11:59.673Z,11.80
2022-11-14T09:12:58.663Z,12.10
2022-11-14T09:13:58.681Z,12.40
2022-11-14T09:14:58.665Z,11.90
2022-11-14T09:15:58.635Z,11.10
2022-11-14T09:17:03.138Z,12.20
2022-11-14T09:17:59.613Z,12.20
2022-11-14T09:18:58.641Z,12.60
2022-11-14T09:19:58.595Z,12.90
2022-11-14T09:20:58.564Z,12.60
2022-11-14T09:21:58.565Z,12.70
2022-11-14T09:22:58.560Z,13.00
2022-11-14T09:24:01.669Z,12.40
2022-11-14T09:24:58.545Z,12.30
2022-11-14T09:25:58.517Z,12.50
2022-11-14T09:26:58.532Z,12.20
2022-11-14T09:27:58.509Z,12.20
2022-11-14T09:28:58.497Z,12.00
2022-11-14T09:29:58.501Z,12.70
2022-11-14T09:30:58.477Z,12.20
2022-11-14T09:31:58.436Z,12.50
2022-11-14T09:32:58.435Z,13.10
2022-11-14T09:33:58.436Z,13.20
2022-11-14T09:34:58.405Z,12.30
2022-11-14T09:35:58.444Z,12.30
2022-11-14T09:36:58.396Z,12.50
2022-11-14T09:37:58.424Z,12.40
2022-11-14T09:38:58.356Z,12.00
2022-11-14T09:39:58.358Z,12.00
2022-11-14T09:40:58.361Z,12.70
2022-11-14T09:41:58.354Z,12.50
2022-11-14T09:42:58.308Z,12.80
2022-11-14T09:43:58.308Z,11.90
2022-11-14T09:44:58.308Z,12.10
2022-11-14T09:45:58.306Z,12.20
2022-11-14T09:46:58.316Z,12.80
2022-11-14T09:47:58.256Z,13.00
2022-11-14T09:48:58.310Z,12.50
2022-11-14T09:49:58.249Z,12.80
2022-11-14T09:50:58.229Z,12.70
2022-11-14T09:51:58.258Z,13.00
2022-11-14T09:52:58.303Z,12.30
2022-11-14T09:53:58.246Z,11.80
2022-11-14T09:54:58.241Z,12.80
2022-11-14T09:55:58.160Z,12.10
2022-11-14T09:56:58.149Z,11.10
2022-11-14T09:57:58.140Z,11.70
2022-11-14T09:58:58.151Z,10.60
2022-11-14T09:59:58.127Z,9.50
2022-11-14T10:00:58.110Z,10.00
2022-11-14T10:01:58.137Z,9.90
2022-11-14T10:02:58.101Z,10.60
2022-11-14T10:03:58.088Z,10.40
2022-11-14T10:04:58.060Z,10.00
2022-11-14T10:05:58.055Z,8.90
2022-11-14T10:06:58.085Z,9.70
2022-11-14T10:07:58.029Z,8.60
2022-11-14T10:08:58.032Z,9.50
2022-11-14T10:09:58.020Z,9.20
2022-11-14T10:10:57.991Z,9.40
2022-11-14T10:11:57.980Z,9.60
2022-11-14T10:12:57.961Z,8.80
2022-11-14T10:13:57.950Z,9.10
2022-11-14T10:14:57.939Z,9.10
2022-11-14T10:15:57.950Z,8.80
2022-11-14T10:16:57.944Z,8.50
2022-11-14T10:17:57.925Z,9.80
2022-11-14T10:18:57.899Z,9.40
2022-11-14T10:19:57.883Z,9.00
2022-11-14T10:20:57.972Z,8.30
2022-11-14T10:21:57.863Z,9.30
2022-11-14T10:23:01.411Z,8.60
2022-11-14T10:23:57.833Z,7.70
2022-11-14T10:24:57.837Z,9.10
2022-11-14T10:25:57.825Z,8.30
2022-11-14T10:26:57.832Z,8.60
2022-11-14T10:28:03.855Z,8.60
2022-11-14T10:28:58.804Z,8.80
2022-11-14T10:29:57.774Z,8.40
2022-11-14T10:30:57.764Z,8.40
2022-11-14T10:31:57.762Z,8.40
2022-11-14T10:32:57.754Z,8.20
2022-11-14T10:33:57.726Z,8.40
2022-11-14T10:34:57.720Z,8.10
2022-11-14T10:35:57.738Z,7.90
2022-11-14T10:36:57.683Z,8.60
2022-11-14T10:37:57.713Z,7.90
2022-11-14T10:38:57.665Z,7.90
2022-11-14T10:39:57.655Z,7.50
2022-11-14T10:40:57.653Z,8.50
2022-11-14T10:42:01.006Z,7.90
2022-11-14T10:42:58.649Z,8.10
2022-11-14T10:43:57.661Z,7.80
2022-11-14T10:44:57.606Z,7.80
2022-11-14T10:45:57.584Z,8.10
2022-11-14T10:46:57.583Z,8.10
2022-11-14T10:47:57.567Z,7.80
2022-11-14T10:49:00.090Z,8.00
2022-11-14T10:49:57.535Z,7.50
2022-11-14T10:50:57.538Z,8.10
2022-11-14T10:51:57.517Z,7.40
2022-11-14T10:52:57.506Z,8.30
2022-11-14T10:53:57.496Z,8.00
2022-11-14T10:54:57.546Z,7.40
2022-11-14T10:56:04.021Z,7.40
2022-11-14T10:56:58.808Z,7.60
2022-11-14T10:57:57.454Z,7.60
2022-11-14T10:58:57.453Z,8.50
2022-11-14T10:59:57.428Z,6.90
2022-11-14T11:00:57.450Z,8.40
2022-11-14T11:01:57.402Z,7.60
2022-11-14T11:02:57.389Z,7.60
2022-11-14T11:03:57.430Z,7.20
2022-11-14T11:04:57.368Z,8.10
2022-11-14T11:05:57.360Z,7.40
2022-11-14T11:06:57.396Z,7.70
2022-11-14T11:08:02.843Z,7.70
2022-11-14T11:08:58.381Z,7.80
2022-11-14T11:09:57.309Z,7.80
2022-11-14T11:10:57.306Z,7.10
2022-11-14T11:11:57.312Z,7.40
2022-11-14T11:12:57.386Z,7.00
2022-11-14T11:13:57.260Z,7.00
2022-11-14T11:14:57.253Z,6.90
2022-11-14T11:15:57.253Z,7.90
2022-11-14T11:16:57.232Z,7.30
2022-11-14T11:17:57.251Z,7.40
2022-11-14T11:18:57.214Z,7.30
2022-11-14T11:19:57.191Z,7.30
2022-11-14T11:20:57.201Z,7.00
2022-11-14T11:21:57.172Z,6.70
2022-11-14T11:22:59.754Z,7.20
2022-11-14T11:23:58.175Z,6.90
2022-11-14T11:24:57.142Z,6.80
2022-11-14T11:25:57.142Z,7.50
2022-11-14T11:26:57.112Z,7.30
2022-11-14T11:27:57.100Z,7.30
2022-11-14T11:28:57.089Z,6.80
2022-11-14T11:29:57.092Z,7.20
2022-11-14T11:30:57.168Z,7.50
2022-11-14T11:31:57.055Z,7.60
2022-11-14T11:32:57.052Z,7.70
2022-11-14T11:33:57.033Z,7.30
2022-11-14T11:34:57.062Z,7.00
2022-11-14T11:35:57.001Z,7.70
2022-11-14T11:36:56.992Z,7.10
2022-11-14T11:37:56.984Z,6.60
2022-11-14T11:38:56.971Z,7.80
2022-11-14T11:39:56.966Z,7.30
2022-11-14T11:40:56.973Z,7.20
2022-11-14T11:42:10.248Z,7.00
2022-11-14T11:43:37.895Z,7.70
2022-11-14T11:43:58.333Z,7.10
2022-11-14T11:44:56.905Z,8.30
2022-11-14T11:45:56.883Z,6.80
2022-11-14T11:46:56.922Z,7.10
2022-11-14T11:47:56.865Z,7.60
2022-11-14T11:48:56.865Z,7.00
2022-11-14T11:49:56.845Z,7.50
2022-11-14T11:50:56.824Z,7.10
2022-11-14T11:51:56.814Z,7.40
2022-11-14T11:52:56.826Z,7.50
2022-11-14T11:53:56.801Z,7.10
2022-11-14T11:54:56.796Z,6.40
2022-11-14T11:55:56.776Z,7.30
2022-11-14T11:56:56.755Z,6.20
2022-11-14T11:57:56.757Z,7.00
2022-11-14T11:58:56.786Z,6.40
2022-11-14T11:59:56.716Z,6.80
2022-11-14T12:00:56.742Z,7.10
2022-11-14T12:01:56.739Z,6.70
2022-11-14T12:02:56.717Z,7.00
2022-11-14T12:03:56.731Z,6.40
2022-11-14T12:04:56.695Z,6.90
2022-11-14T12:05:56.675Z,6.50
2022-11-14T12:06:56.701Z,6.20
2022-11-14T12:07:56.638Z,6.00
2022-11-14T12:08:56.619Z,6.40
2022-11-14T12:10:10.286Z,6.70
2022-11-14T12:10:57.611Z,6.50
2022-11-14T12:11:56.588Z,6.40
2022-11-14T12:12:56.584Z,6.50
2022-11-14T12:13:56.583Z,7.20
2022-11-14T12:14:56.558Z,6.80
2022-11-14T12:15:56.591Z,7.10
2022-11-14T12:16:56.520Z,7.10
2022-11-14T12:17:56.525Z,6.90
2022-11-14T12:18:56.507Z,6.50
2022-11-14T12:19:56.512Z,6.70
2022-11-14T12:20:56.489Z,6.50
2022-11-14T12:21:58.890Z,7.70
2022-11-14T12:22:56.466Z,7.00
2022-11-14T12:23:56.458Z,6.50
2022-11-14T12:24:56.438Z,6.10
2022-11-14T12:25:56.432Z,6.70
2022-11-14T12:26:56.402Z,6.40
2022-11-14T12:27:56.481Z,6.60
2022-11-14T12:28:56.396Z,6.40
2022-11-14T12:29:56.380Z,6.30
2022-11-14T12:30:56.362Z,6.30
2022-11-14T12:31:56.360Z,6.10
2022-11-14T12:32:56.343Z,6.10
2022-11-14T12:33:56.363Z,6.20
2022-11-14T12:34:56.402Z,6.70
2022-11-14T12:35:56.303Z,6.80
2022-11-14T12:36:56.332Z,6.70
2022-11-14T12:37:56.393Z,6.10
2022-11-14T12:38:56.324Z,6.50
2022-11-14T12:39:56.266Z,6.50
2022-11-14T12:40:56.270Z,6.50
2022-11-14T12:41:56.242Z,6.90
2022-11-14T12:42:56.233Z,6.80
2022-11-14T12:43:56.243Z,7.20
2022-11-14T12:44:56.224Z,6.90
2022-11-14T12:45:56.193Z,6.80
2022-11-14T12:46:56.216Z,7.00
2022-11-14T12:47:56.164Z,6.90
2022-11-14T12:48:56.155Z,6.50
2022-11-14T12:49:56.174Z,6.80
2022-11-14T12:50:56.134Z,6.90
2022-11-14T12:51:56.115Z,7.20
2022-11-14T12:52:56.133Z,6.60
2022-11-14T12:53:56.110Z,6.70
2022-11-14T12:54:56.094Z,6.00
2022-11-14T12:55:56.145Z,6.00
2022-11-14T12:56:56.088Z,6.40
2022-11-14T12:57:56.047Z,5.80
2022-11-14T12:58:56.045Z,5.90
2022-11-14T12:59:56.027Z,6.10
2022-11-14T13:00:56.129Z,6.60
2022-11-14T13:01:56.056Z,6.40
2022-11-14T13:02:56.004Z,6.30
2022-11-14T13:03:55.995Z,6.50
2022-11-14T13:04:55.978Z,5.80
2022-11-14T13:05:55.962Z,6.00
2022-11-14T13:06:56.058Z,5.70
2022-11-14T13:07:55.958Z,6.20
2022-11-14T13:08:55.929Z,5.90
2022-11-14T13:09:55.910Z,6.10
2022-11-14T13:10:55.909Z,5.40
2022-11-14T13:11:55.897Z,5.50
2022-11-14T13:12:55.909Z,5.90
2022-11-14T13:13:55.878Z,5.60